Time;durP1;ratioP1;P1;durP2;ratioP2;P2;SDS_P1;SDS_P2;PMS_P1;PMS_P2;Temp;Humidity;BMP_temperature;BMP_pressure;BME280_temperature;BME280_humidity;BME280_pressure;Samples;Min_cycle;Max_cycle;Signal;HPM_P1;HPM_P2
2021/09/03 00:00:23;;;;;;;9.98;8.23;;;18.10;60.40;;;;;;5047696;28;20469;-85
2021/09/03 00:02:50;;;;;;;12.68;8.25;;;18.00;60.20;;;;;;5064375;28;20029;-86
2021/09/03 00:05:18;;;;;;;13.00;8.05;;;18.10;60.40;;;;;;5065215;28;20036;-86
2021/09/03 00:07:45;;;;;;;11.38;8.30;;;18.00;60.30;;;;;;5064876;28;20024;-86
2021/09/03 00:10:13;;;;;;;9.75;7.75;;;18.10;60.50;;;;;;5083201;28;20394;-84
2021/09/03 00:12:39;;;;;;;9.75;6.82;;;18.00;60.30;;;;;;5082855;28;20995;-82
2021/09/03 00:15:08;;;;;;;10.80;7.50;;;18.00;60.40;;;;;;5066988;28;20127;-83
2021/09/03 00:17:35;;;;;;;12.63;7.85;;;18.00;60.40;;;;;;5083714;28;20083;-83
2021/09/03 00:20:01;;;;;;;12.55;8.00;;;18.00;60.40;;;;;;5046487;28;20159;-84
2021/09/03 00:22:27;;;;;;;12.40;8.25;;;18.00;60.40;;;;;;5026913;28;20418;-84
2021/09/03 00:24:53;;;;;;;11.80;7.68;;;18.00;60.50;;;;;;5047092;28;20169;-85
2021/09/03 00:27:19;;;;;;;11.13;8.00;;;18.00;60.50;;;;;;5047558;28;20029;-85
2021/09/03 00:29:45;;;;;;;14.07;7.68;;;18.00;60.50;;;;;;5067067;28;20027;-85
2021/09/03 00:32:11;;;;;;;10.50;6.78;;;18.00;60.50;;;;;;5067423;28;20044;-83
2021/09/03 00:34:37;;;;;;;10.68;7.60;;;17.90;60.30;;;;;;5066972;28;20036;-84
2021/09/03 00:37:03;;;;;;;9.88;7.05;;;17.90;60.40;;;;;;5067512;28;20068;-85
2021/09/03 00:39:29;;;;;;;13.18;7.63;;;17.90;60.50;;;;;;5066721;28;20044;-83
2021/09/03 00:41:55;;;;;;;10.52;7.18;;;17.90;60.50;;;;;;5067623;28;20248;-83
2021/09/03 00:44:21;;;;;;;10.57;7.40;;;17.90;60.50;;;;;;5062651;28;20036;-83
2021/09/03 00:46:47;;;;;;;13.68;7.78;;;17.90;60.60;;;;;;5087767;28;20024;-85
2021/09/03 00:49:13;;;;;;;15.93;8.00;;;17.90;60.60;;;;;;5076052;28;20082;-85
2021/09/03 00:51:39;;;;;;;12.23;7.53;;;17.80;60.50;;;;;;5068667;28;20040;-86
2021/09/03 00:54:06;;;;;;;8.93;7.57;;;17.80;60.50;;;;;;5049945;28;20476;-82
2021/09/03 00:56:32;;;;;;;10.75;6.82;;;17.80;60.60;;;;;;5066551;28;20055;-83
2021/09/03 00:58:58;;;;;;;10.68;7.05;;;17.80;60.60;;;;;;5067033;28;20484;-82
2021/09/03 01:01:24;;;;;;;9.52;6.82;;;17.80;60.60;;;;;;5066904;28;20029;-83
2021/09/03 01:03:50;;;;;;;10.20;7.28;;;17.80;60.70;;;;;;5050288;28;20032;-87
2021/09/03 01:06:16;;;;;;;11.60;7.80;;;17.80;60.70;;;;;;5067002;28;20059;-82
2021/09/03 01:08:42;;;;;;;10.45;7.32;;;17.80;60.70;;;;;;5066360;28;20052;-86
2021/09/03 01:11:08;;;;;;;8.77;6.75;;;17.80;60.70;;;;;;5068405;28;20113;-84
2021/09/03 01:13:34;;;;;;;9.13;6.80;;;17.80;60.80;;;;;;5068304;28;20025;-85
2021/09/03 01:16:00;;;;;;;10.23;7.53;;;17.80;60.80;;;;;;5050307;28;20143;-85
2021/09/03 01:18:26;;;;;;;9.90;7.18;;;17.80;60.80;;;;;;5059538;28;20115;-83
2021/09/03 01:20:52;;;;;;;9.40;6.63;;;17.80;60.80;;;;;;5067356;28;20039;-84
2021/09/03 01:23:18;;;;;;;10.23;7.40;;;17.80;60.90;;;;;;5047283;28;20029;-86
2021/09/03 01:25:44;;;;;;;13.68;7.72;;;17.70;60.70;;;;;;5030029;28;20036;-91
2021/09/03 01:28:11;;;;;;;13.93;8.45;;;17.80;60.90;;;;;;5065459;28;20449;-85
2021/09/03 01:30:37;;;;;;;9.63;6.95;;;17.70;60.80;;;;;;5064984;28;20171;-82
2021/09/03 01:33:03;;;;;;;12.18;7.57;;;17.80;61.00;;;;;;5050422;28;20206;-86
2021/09/03 01:35:29;;;;;;;11.57;7.53;;;17.80;61.00;;;;;;5069052;28;20028;-87
2021/09/03 01:37:55;;;;;;;10.82;7.07;;;17.70;60.80;;;;;;5056911;28;20491;-85
2021/09/03 01:40:21;;;;;;;10.90;7.20;;;17.70;60.90;;;;;;5083927;28;20059;-83
2021/09/03 01:42:47;;;;;;;12.98;6.85;;;17.70;60.90;;;;;;5063515;28;20032;-83
2021/09/03 01:45:13;;;;;;;10.55;7.30;;;17.70;61.00;;;;;;5050507;28;20043;-91
2021/09/03 01:47:39;;;;;;;12.00;6.90;;;17.80;61.10;;;;;;5059914;28;20089;-90
2021/09/03 01:50:06;;;;;;;13.60;7.50;;;17.70;61.00;;;;;;5072595;28;20041;-87
2021/09/03 01:52:32;;;;;;;9.77;7.13;;;17.70;61.00;;;;;;5052321;28;20493;-88
2021/09/03 01:54:58;;;;;;;12.13;7.38;;;17.70;61.10;;;;;;5050510;28;20381;-85
2021/09/03 01:57:24;;;;;;;9.98;6.72;;;17.70;61.10;;;;;;5051084;28;20494;-88
2021/09/03 01:59:50;;;;;;;12.57;7.60;;;17.70;61.10;;;;;;5051319;28;20094;-83
2021/09/03 02:02:16;;;;;;;13.55;7.25;;;17.70;61.10;;;;;;5052129;28;20056;-83
2021/09/03 02:04:42;;;;;;;10.75;7.18;;;17.70;61.20;;;;;;5051188;28;20029;-87
2021/09/03 02:07:08;;;;;;;9.63;7.28;;;17.70;61.20;;;;;;5051005;28;20029;-88
2021/09/03 02:09:34;;;;;;;13.23;7.25;;;17.70;61.20;;;;;;5051296;28;20122;-89
2021/09/03 02:12:00;;;;;;;9.45;7.28;;;17.70;61.30;;;;;;5051343;28;20056;-86
2021/09/03 02:14:26;;;;;;;10.38;7.45;;;17.60;61.10;;;;;;5052299;28;20033;-86
2021/09/03 02:16:52;;;;;;;10.98;7.45;;;17.70;61.30;;;;;;5036229;28;20051;-88
2021/09/03 02:19:18;;;;;;;16.45;8.55;;;17.60;61.20;;;;;;5091205;28;20623;-84
2021/09/03 02:21:45;;;;;;;10.10;6.28;;;17.60;61.20;;;;;;5092361;28;20082;-87
2021/09/03 02:24:11;;;;;;;10.25;7.30;;;17.60;61.20;;;;;;5074295;28;20032;-86
2021/09/03 02:26:37;;;;;;;13.63;7.88;;;17.60;61.30;;;;;;5092206;28;20037;-84
2021/09/03 02:29:03;;;;;;;11.02;7.07;;;17.60;61.30;;;;;;5091287;28;20113;-87
2021/09/03 02:31:29;;;;;;;11.27;7.15;;;17.60;61.40;;;;;;5090898;28;20039;-87
2021/09/03 02:33:55;;;;;;;8.40;7.47;;;17.60;61.40;;;;;;5074204;28;20032;-86
2021/09/03 02:36:20;;;;;;;11.77;7.65;;;17.50;61.20;;;;;;5091386;28;20028;-86
2021/09/03 02:38:47;;;;;;;11.93;6.88;;;17.60;61.50;;;;;;5090859;28;20040;-85
2021/09/03 02:41:13;;;;;;;10.52;6.78;;;17.50;61.30;;;;;;5090405;28;20344;-84
2021/09/03 02:43:39;;;;;;;12.50;7.28;;;17.50;61.40;;;;;;5091160;28;20043;-83
2021/09/03 02:46:05;;;;;;;13.88;7.78;;;17.50;61.40;;;;;;5092019;28;20052;-86
2021/09/03 02:48:31;;;;;;;12.32;7.78;;;17.50;61.40;;;;;;5090733;28;20043;-87
2021/09/03 02:50:57;;;;;;;9.45;7.07;;;17.50;61.50;;;;;;5091363;28;20073;-83
2021/09/03 02:53:23;;;;;;;9.98;7.10;;;17.50;61.50;;;;;;5091834;28;20130;-88
2021/09/03 02:55:49;;;;;;;12.90;7.28;;;17.50;61.60;;;;;;5091501;28;20024;-89
2021/09/03 02:58:14;;;;;;;11.38;7.47;;;17.50;61.60;;;;;;5073595;28;20047;-86
2021/09/03 03:00:40;;;;;;;13.73;7.40;;;17.50;61.60;;;;;;5090630;28;20028;-88
2021/09/03 03:03:08;;;;;;;14.20;8.13;;;17.50;61.60;;;;;;5090625;28;20051;-84
2021/09/03 03:05:34;;;;;;;12.00;7.22;;;17.40;61.50;;;;;;5091735;28;20115;-86
2021/09/03 03:08:00;;;;;;;12.40;7.35;;;17.40;61.50;;;;;;5091303;28;20123;-88
2021/09/03 03:10:26;;;;;;;11.60;6.75;;;17.40;61.50;;;;;;5090244;28;20059;-84
2021/09/03 03:12:56;;;;;;;9.35;7.38;;;17.40;61.60;;;;;;5091572;28;20340;-88
2021/09/03 03:15:22;;;;;;;11.88;7.55;;;17.40;61.60;;;;;;5073455;28;20079;-86
2021/09/03 03:17:49;;;;;;;10.95;7.15;;;17.40;61.60;;;;;;5091409;28;20067;-90
2021/09/03 03:20:17;;;;;;;9.18;6.95;;;17.40;61.60;;;;;;5091125;28;20040;-85
2021/09/03 03:22:46;;;;;;;9.77;6.82;;;17.40;61.70;;;;;;5073354;28;20032;-92
2021/09/03 03:25:13;;;;;;;10.75;7.07;;;17.40;61.70;;;;;;5073538;28;20077;-83
2021/09/03 03:27:39;;;;;;;10.77;6.85;;;17.40;61.70;;;;;;5090088;28;20052;-89
2021/09/03 03:30:06;;;;;;;10.15;6.53;;;17.40;61.70;;;;;;5090394;28;20479;-85
2021/09/03 03:32:32;;;;;;;10.32;7.07;;;17.40;61.80;;;;;;5073390;28;20465;-89
2021/09/03 03:34:58;;;;;;;11.68;7.22;;;17.40;61.80;;;;;;5091357;28;20039;-86
2021/09/03 03:37:24;;;;;;;12.73;7.97;;;17.40;61.80;;;;;;5091324;28;20428;-86
2021/09/03 03:39:49;;;;;;;12.43;7.25;;;17.40;61.80;;;;;;5089477;28;20123;-86
2021/09/03 03:42:16;;;;;;;10.77;7.40;;;17.30;61.70;;;;;;5091082;28;20028;-85
2021/09/03 03:44:42;;;;;;;14.80;8.20;;;17.30;61.70;;;;;;5090353;28;20043;-85
2021/09/03 03:47:08;;;;;;;11.27;7.63;;;17.30;61.80;;;;;;5089998;28;20028;-88
2021/09/03 03:49:34;;;;;;;13.88;7.50;;;17.30;61.80;;;;;;5090120;28;20157;-88
2021/09/03 03:52:00;;;;;;;8.82;6.32;;;17.30;61.80;;;;;;5089451;28;20115;-89
2021/09/03 03:54:25;;;;;;;10.20;6.70;;;17.30;61.90;;;;;;5091257;28;20491;-85
2021/09/03 03:56:51;;;;;;;10.35;7.50;;;17.30;61.90;;;;;;5071931;28;20024;-86
2021/09/03 03:59:17;;;;;;;13.75;7.45;;;17.30;61.90;;;;;;5071606;28;20111;-84
2021/09/03 04:01:43;;;;;;;10.13;7.70;;;17.30;62.00;;;;;;5089443;28;20063;-90
2021/09/03 04:04:09;;;;;;;10.10;6.82;;;17.30;62.00;;;;;;5074799;28;20054;-84
2021/09/03 04:06:35;;;;;;;13.18;8.60;;;17.20;61.80;;;;;;5074972;28;20035;-83
2021/09/03 04:09:01;;;;;;;13.88;8.25;;;17.30;62.00;;;;;;5063707;28;20032;-87
2021/09/03 04:11:28;;;;;;;10.98;7.55;;;17.20;61.90;;;;;;5051231;28;20348;-83
2021/09/03 04:13:54;;;;;;;15.80;7.97;;;17.20;61.90;;;;;;5060387;28;20594;-83
2021/09/03 04:16:19;;;;;;;15.77;7.78;;;17.20;61.90;;;;;;5035151;28;20037;-85
2021/09/03 04:18:45;;;;;;;10.43;7.28;;;17.20;62.00;;;;;;5071735;28;20041;-83
2021/09/03 04:21:11;;;;;;;9.65;7.13;;;17.20;62.00;;;;;;5066685;28;20542;-82
2021/09/03 04:23:37;;;;;;;14.60;8.27;;;17.20;62.10;;;;;;5052893;28;20028;-82
2021/09/03 04:26:03;;;;;;;15.13;8.00;;;17.20;62.10;;;;;;5051808;28;20029;-86
2021/09/03 04:28:29;;;;;;;11.35;7.32;;;17.20;62.10;;;;;;5053396;28;20439;-83
2021/09/03 04:30:55;;;;;;;14.13;7.15;;;17.20;62.10;;;;;;5067802;28;20025;-82
2021/09/03 04:33:21;;;;;;;9.95;7.20;;;17.20;62.10;;;;;;5068442;28;20166;-83
2021/09/03 04:35:47;;;;;;;13.02;8.20;;;17.20;62.70;;;;;;5085871;28;20024;-82
2021/09/03 04:38:13;;;;;;;14.98;7.50;;;17.20;62.20;;;;;;5071376;28;20122;-81
2021/09/03 04:40:39;;;;;;;12.68;7.85;;;17.20;62.20;;;;;;5054772;28;20068;-82
2021/09/03 04:43:05;;;;;;;12.02;8.35;;;17.20;62.20;;;;;;5071644;28;20390;-85
2021/09/03 04:45:31;;;;;;;13.88;8.60;;;17.10;62.10;;;;;;5072373;28;20033;-85
2021/09/03 04:47:57;;;;;;;11.77;7.93;;;17.10;62.10;;;;;;5070821;28;20021;-86
2021/09/03 04:50:23;;;;;;;14.50;8.00;;;17.10;62.10;;;;;;5064230;28;20108;-87
2021/09/03 04:52:49;;;;;;;10.93;7.88;;;17.20;62.30;;;;;;5050419;28;20078;-83
2021/09/03 04:55:15;;;;;;;10.63;7.28;;;17.20;62.40;;;;;;5067679;28;20514;-85
2021/09/03 04:57:42;;;;;;;10.45;7.40;;;17.20;62.40;;;;;;5055521;28;20487;-82
2021/09/03 05:00:12;;;;;;;12.70;7.90;;;17.10;62.30;;;;;;5089598;28;20040;-86
2021/09/03 05:02:38;;;;;;;11.40;7.53;;;17.10;62.30;;;;;;5082211;28;20025;-83
2021/09/03 05:05:05;;;;;;;13.05;8.05;;;17.10;62.30;;;;;;5050151;28;20478;-84
2021/09/03 05:07:31;;;;;;;10.38;7.40;;;17.10;62.40;;;;;;5066577;28;20390;-82
2021/09/03 05:09:57;;;;;;;12.25;7.78;;;17.10;62.40;;;;;;5066065;28;20111;-82
2021/09/03 05:12:23;;;;;;;10.57;8.20;;;17.00;62.30;;;;;;5065655;28;20044;-84
2021/09/03 05:14:49;;;;;;;13.02;7.93;;;17.10;62.50;;;;;;5065243;28;20058;-84
2021/09/03 05:17:15;;;;;;;11.38;7.28;;;17.00;62.30;;;;;;5069802;28;20084;-83
2021/09/03 05:19:41;;;;;;;10.60;7.90;;;17.10;62.60;;;;;;5050129;28;20063;-85
2021/09/03 05:22:08;;;;;;;13.10;8.23;;;17.00;62.40;;;;;;5084720;28;20463;-87
2021/09/03 05:24:34;;;;;;;12.18;8.45;;;17.00;62.50;;;;;;5063823;28;20032;-82
2021/09/03 05:27:00;;;;;;;12.82;8.73;;;17.00;62.50;;;;;;5062027;28;20032;-82
2021/09/03 05:29:25;;;;;;;19.08;10.27;;;17.00;62.50;;;;;;5066176;28;20080;-84
2021/09/03 05:31:52;;;;;;;20.58;10.65;;;17.00;62.70;;;;;;5056361;28;20067;-80
2021/09/03 05:34:18;;;;;;;21.85;10.93;;;17.00;62.80;;;;;;5058208;28;20028;-82
2021/09/03 05:36:44;;;;;;;24.50;11.20;;;17.10;63.10;;;;;;5058666;28;20033;-84
2021/09/03 05:39:10;;;;;;;23.75;10.02;;;17.00;63.00;;;;;;5066665;28;20033;-85
2021/09/03 05:41:35;;;;;;;23.20;10.55;;;17.00;63.10;;;;;;5058132;28;20472;-84
2021/09/03 05:44:01;;;;;;;24.13;10.95;;;17.10;63.40;;;;;;5047836;28;20052;-80
2021/09/03 05:46:27;;;;;;;23.58;11.60;;;17.00;63.30;;;;;;5065081;28;20359;-82
2021/09/03 05:48:53;;;;;;;28.27;12.00;;;17.10;63.60;;;;;;5064549;28;20028;-80
2021/09/03 05:51:20;;;;;;;21.77;11.32;;;17.00;63.50;;;;;;5059962;28;20101;-81
2021/09/03 05:53:46;;;;;;;23.38;11.32;;;17.00;63.60;;;;;;5076984;28;20032;-81
2021/09/03 05:56:12;;;;;;;25.38;11.98;;;17.00;63.60;;;;;;5064529;28;20040;-80
2021/09/03 05:58:38;;;;;;;22.52;11.07;;;17.10;63.90;;;;;;5065883;28;20123;-83
2021/09/03 06:01:04;;;;;;;17.75;10.82;;;17.00;63.80;;;;;;5065228;28;20135;-84
2021/09/03 06:03:31;;;;;;;25.73;12.63;;;17.00;63.80;;;;;;5066432;28;20021;-83
2021/09/03 06:05:57;;;;;;;22.75;11.75;;;17.00;63.90;;;;;;5048682;28;20024;-85
2021/09/03 06:08:23;;;;;;;20.85;10.90;;;17.00;64.00;;;;;;5066324;28;20367;-87
2021/09/03 06:10:50;;;;;;;22.00;10.82;;;17.00;64.60;;;;;;5066657;28;20021;-93
2021/09/03 06:13:16;;;;;;;23.83;11.70;;;17.00;64.10;;;;;;5068669;28;20372;-91
2021/09/03 06:15:42;;;;;;;24.88;11.43;;;17.00;64.10;;;;;;5065034;28;20428;-84
2021/09/03 06:18:08;;;;;;;25.52;12.05;;;17.00;64.30;;;;;;5069283;28;20028;-84
2021/09/03 06:20:34;;;;;;;24.08;11.63;;;17.00;64.40;;;;;;5061732;28;20037;-82
2021/09/03 06:23:00;;;;;;;26.48;12.40;;;17.00;64.50;;;;;;5064165;28;20029;-81
2021/09/03 06:25:26;;;;;;;30.23;12.30;;;17.00;64.60;;;;;;5030210;28;20036;-81
2021/09/03 06:27:52;;;;;;;26.27;13.02;;;17.00;64.60;;;;;;5069454;28;20028;-80
2021/09/03 06:30:18;;;;;;;19.92;11.57;;;17.00;64.70;;;;;;5085738;28;20039;-81
2021/09/03 06:32:44;;;;;;;28.45;11.63;;;17.00;64.70;;;;;;5077899;28;20046;-81
2021/09/03 06:35:10;;;;;;;31.67;12.52;;;17.00;64.80;;;;;;5036647;28;20056;-82
2021/09/03 06:37:36;;;;;;;24.42;13.02;;;17.10;65.00;;;;;;5082958;28;20085;-82
2021/09/03 06:40:02;;;;;;;22.15;11.85;;;17.10;65.10;;;;;;5065812;28;20085;-82
2021/09/03 06:42:30;;;;;;;25.25;12.27;;;17.10;65.10;;;;;;5083599;28;20353;-81
2021/09/03 06:45:00;;;;;;;25.70;12.00;;;17.10;65.10;;;;;;5066445;28;20050;-83
2021/09/03 06:47:27;;;;;;;24.35;12.25;;;17.10;65.10;;;;;;5057680;28;20024;-81
2021/09/03 06:49:53;;;;;;;32.97;12.38;;;17.20;65.40;;;;;;5031630;28;20041;-83
2021/09/03 06:52:28;;;;;;;22.95;12.32;;;17.10;65.20;;;;;;5047781;28;20082;-82
2021/09/03 06:54:55;;;;;;;34.28;13.40;;;17.20;65.40;;;;;;5047184;28;20454;-81
2021/09/03 06:57:22;;;;;;;28.92;12.02;;;17.20;65.50;;;;;;5063675;28;20033;-83
2021/09/03 06:59:48;;;;;;;26.10;11.60;;;17.20;65.50;;;;;;5065352;28;20074;-82
2021/09/03 07:02:15;;;;;;;26.70;12.73;;;17.20;65.50;;;;;;5064888;28;20102;-82
2021/09/03 07:04:42;;;;;;;29.95;13.02;;;17.20;65.50;;;;;;5062949;28;20306;-82
2021/09/03 07:07:08;;;;;;;25.70;12.15;;;17.20;65.60;;;;;;5063746;28;20029;-82
2021/09/03 07:09:34;;;;;;;24.52;12.90;;;17.20;65.60;;;;;;5045770;28;20029;-82
2021/09/03 07:12:00;;;;;;;25.02;12.52;;;17.20;65.60;;;;;;5063375;28;20124;-82
2021/09/03 07:14:26;;;;;;;24.95;11.95;;;17.20;65.70;;;;;;5046934;28;20050;-81
2021/09/03 07:16:52;;;;;;;31.60;12.70;;;17.30;65.90;;;;;;5063583;28;20052;-82
2021/09/03 07:19:19;;;;;;;19.08;12.15;;;17.30;65.90;;;;;;5068508;28;20043;-85
2021/09/03 07:21:46;;;;;;;23.83;12.48;;;17.30;65.90;;;;;;5063598;28;20120;-84
2021/09/03 07:24:12;;;;;;;25.38;12.80;;;17.30;66.00;;;;;;5063936;28;20051;-84
2021/09/03 07:26:38;;;;;;;21.95;11.80;;;17.30;66.00;;;;;;5063120;28;20032;-83
2021/09/03 07:29:04;;;;;;;25.45;12.82;;;17.30;66.00;;;;;;5031267;28;20064;-83
2021/09/03 07:31:32;;;;;;;27.73;13.02;;;17.40;66.30;;;;;;5064336;28;20499;-85
2021/09/03 07:33:58;;;;;;;26.15;13.15;;;17.40;66.30;;;;;;5063933;28;20340;-83
2021/09/03 07:36:23;;;;;;;25.83;12.50;;;17.50;66.40;;;;;;5047959;28;20305;-85
2021/09/03 07:38:50;;;;;;;22.67;12.57;;;17.50;66.40;;;;;;5064560;28;20043;-84
2021/09/03 07:41:15;;;;;;;23.45;12.73;;;17.60;66.60;;;;;;5047150;28;20033;-86
2021/09/03 07:43:42;;;;;;;24.65;12.73;;;17.60;66.50;;;;;;5064911;28;20029;-85
2021/09/03 07:46:08;;;;;;;31.65;12.55;;;17.70;66.60;;;;;;5073872;28;20545;-82
2021/09/03 07:48:34;;;;;;;25.77;13.43;;;17.80;66.70;;;;;;5047496;28;20057;-84
2021/09/03 07:51:00;;;;;;;20.52;11.93;;;17.90;66.70;;;;;;5063526;28;20039;-84
2021/09/03 07:53:26;;;;;;;27.75;12.70;;;17.90;66.60;;;;;;5059469;28;20028;-86
2021/09/03 07:55:52;;;;;;;22.95;12.75;;;18.00;66.60;;;;;;5084297;28;20035;-87
2021/09/03 07:58:19;;;;;;;22.00;12.93;;;18.10;66.60;;;;;;5086879;28;20146;-87
2021/09/03 08:00:45;;;;;;;22.92;12.27;;;18.10;66.50;;;;;;5068827;28;20039;-87
2021/09/03 08:03:11;;;;;;;23.42;12.30;;;18.20;66.50;;;;;;5086272;28;20406;-88
2021/09/03 08:05:37;;;;;;;28.40;12.27;;;18.30;66.50;;;;;;5069037;28;20135;-88
2021/09/03 08:08:04;;;;;;;30.55;12.50;;;18.30;66.30;;;;;;5085440;28;20070;-89
2021/09/03 08:10:32;;;;;;;32.65;12.32;;;18.40;66.20;;;;;;5069146;28;20477;-85
2021/09/03 08:13:03;;;;;;;24.95;12.23;;;18.50;66.00;;;;;;5076813;28;20435;-87
2021/09/03 08:15:30;;;;;;;21.50;11.70;;;18.60;66.00;;;;;;5066389;28;20028;-89
2021/09/03 08:17:57;;;;;;;23.10;11.80;;;18.70;65.80;;;;;;5075085;28;20479;-86
2021/09/03 08:20:23;;;;;;;27.35;12.60;;;18.70;65.50;;;;;;5078689;28;20478;-87
2021/09/03 08:22:51;;;;;;;27.20;12.65;;;18.80;65.40;;;;;;5066453;28;20314;-87
2021/09/03 08:25:19;;;;;;;20.33;11.95;;;18.80;65.20;;;;;;5047876;28;20370;-86
2021/09/03 08:27:46;;;;;;;28.77;12.43;;;18.80;65.10;;;;;;5069437;28;20060;-87
2021/09/03 08:30:12;;;;;;;21.48;10.65;;;18.90;65.10;;;;;;5085506;28;20070;-87
2021/09/03 08:32:38;;;;;;;25.58;12.23;;;18.90;65.10;;;;;;5085529;28;20455;-88
2021/09/03 08:35:05;;;;;;;28.52;13.02;;;18.90;65.00;;;;;;5067691;28;20028;-87
2021/09/03 08:37:31;;;;;;;26.88;11.70;;;18.90;64.90;;;;;;5083201;28;20103;-91
2021/09/03 08:39:57;;;;;;;24.42;12.40;;;18.90;64.80;;;;;;5065015;28;20134;-86
2021/09/03 08:42:23;;;;;;;19.73;10.73;;;18.90;64.60;;;;;;5048153;28;20220;-85
2021/09/03 08:44:52;;;;;;;27.55;12.15;;;19.00;64.70;;;;;;5060465;28;20481;-85
2021/09/03 08:47:20;;;;;;;24.65;12.60;;;19.00;64.50;;;;;;5051458;28;20043;-85
2021/09/03 08:49:47;;;;;;;25.38;11.63;;;19.00;64.50;;;;;;5066601;28;20033;-87
2021/09/03 08:52:12;;;;;;;22.92;11.48;;;19.00;64.40;;;;;;5051147;28;20330;-86
2021/09/03 08:54:38;;;;;;;23.27;12.27;;;19.00;64.30;;;;;;5067432;28;20059;-86
2021/09/03 08:57:05;;;;;;;21.33;11.77;;;19.00;64.20;;;;;;5051299;28;20468;-86
2021/09/03 08:59:31;;;;;;;22.02;11.93;;;19.00;64.20;;;;;;5069315;28;20142;-88
2021/09/03 09:02:17;;;;;;;26.42;12.18;;;19.00;64.10;;;;;;5071002;28;20028;-87
2021/09/03 09:04:50;;;;;;;24.52;11.20;;;19.00;64.10;;;;;;5090085;28;20039;-89
2021/09/03 09:07:17;;;;;;;21.00;12.50;;;19.00;64.10;;;;;;5071900;28;20483;-87
2021/09/03 09:09:47;;;;;;;24.00;10.85;;;19.00;64.10;;;;;;5051909;28;20077;-87
2021/09/03 09:12:16;;;;;;;28.42;12.15;;;19.00;64.10;;;;;;5070145;28;20052;-89
2021/09/03 09:15:03;;;;;;;20.83;11.07;;;19.10;64.30;;;;;;5072227;28;20028;-87
2021/09/03 09:17:42;;;;;;;21.80;11.63;;;19.10;64.10;;;;;;5070838;28;20070;-86
2021/09/03 09:20:10;;;;;;;16.33;10.75;;;19.10;64.00;;;;;;5087484;28;20410;-85
2021/09/03 09:22:56;;;;;;;31.90;12.38;;;19.10;63.90;;;;;;5065803;28;20112;-87
2021/09/03 09:25:31;;;;;;;21.90;10.48;;;19.10;63.60;;;;;;5068601;28;20032;-86
2021/09/03 09:28:17;;;;;;;23.67;11.30;;;19.10;63.50;;;;;;5052239;28;20028;-85
2021/09/03 09:30:44;;;;;;;24.80;10.32;;;19.10;63.50;;;;;;5048872;28;20043;-84
2021/09/03 09:33:21;;;;;;;28.17;12.25;;;19.10;63.50;;;;;;5066178;28;20158;-86
2021/09/03 09:35:53;;;;;;;22.10;11.27;;;19.20;63.80;;;;;;5066325;28;20087;-86
2021/09/03 09:38:21;;;;;;;27.10;12.02;;;19.30;63.80;;;;;;5068328;28;20040;-86
2021/09/03 09:40:51;;;;;;;18.45;11.10;;;19.40;63.70;;;;;;5066190;28;20363;-86
2021/09/03 09:43:31;;;;;;;27.38;11.45;;;19.50;63.50;;;;;;5066262;28;20067;-86
2021/09/03 09:46:21;;;;;;;24.08;10.68;;;19.70;63.40;;;;;;5049386;28;20557;-89
2021/09/03 09:48:50;;;;;;;20.67;10.57;;;19.80;63.20;;;;;;5077993;28;20020;-88
2021/09/03 09:51:22;;;;;;;22.15;10.95;;;19.90;62.90;;;;;;5088855;28;20418;-85
2021/09/03 09:54:09;;;;;;;20.55;11.25;;;20.00;62.60;;;;;;5087314;28;20028;-85
2021/09/03 09:56:38;;;;;;;20.73;11.93;;;20.00;62.20;;;;;;5087518;28;20655;-86
2021/09/03 09:59:06;;;;;;;23.20;11.43;;;20.10;62.20;;;;;;5070487;28;20055;-92
2021/09/03 10:01:35;;;;;;;20.13;11.52;;;20.20;62.20;;;;;;5071673;28;20085;-89
2021/09/03 10:04:07;;;;;;;19.58;12.68;;;20.20;61.80;;;;;;5054900;28;20025;-87
2021/09/03 10:06:35;;;;;;;24.40;11.73;;;20.30;61.60;;;;;;5067388;28;20381;-86
2021/09/03 10:09:03;;;;;;;17.67;9.55;;;20.30;61.40;;;;;;5065718;28;20409;-85
2021/09/03 10:11:30;;;;;;;23.67;10.77;;;20.40;61.30;;;;;;5050153;28;20028;-90
2021/09/03 10:13:56;;;;;;;17.73;10.55;;;20.40;61.00;;;;;;5082922;28;20040;-86
2021/09/03 10:16:22;;;;;;;18.65;10.00;;;20.50;60.80;;;;;;5087140;28;20135;-87
2021/09/03 10:18:53;;;;;;;18.15;9.98;;;20.50;60.40;;;;;;5089489;28;20127;-88
2021/09/03 10:21:25;;;;;;;17.67;11.27;;;20.50;60.10;;;;;;5087880;28;20100;-89
2021/09/03 10:23:57;;;;;;;18.85;12.07;;;20.60;59.80;;;;;;5073377;28;20230;-90
2021/09/03 10:26:36;;;;;;;20.05;12.02;;;20.60;59.50;;;;;;5067365;28;20136;-90
2021/09/03 10:29:18;;;;;;;17.15;10.95;;;20.70;59.50;;;;;;5067774;28;20085;-88
2021/09/03 10:34:41;;;;;;;19.17;11.45;;;20.80;59.00;;;;;;5047160;28;20460;-89
2021/09/03 10:37:13;;;;;;;23.13;12.88;;;20.90;58.80;;;;;;5046339;28;20028;-85
2021/09/03 10:39:54;;;;;;;20.77;13.98;;;21.00;58.80;;;;;;5051778;28;20103;-87
2021/09/03 10:42:48;;;;;;;17.83;13.48;;;21.10;58.60;;;;;;5058953;28;20047;-90
2021/09/03 10:45:23;;;;;;;20.38;12.45;;;21.20;58.30;;;;;;5073562;28;20078;-88
2021/09/03 10:48:07;;;;;;;20.83;13.45;;;21.30;58.40;;;;;;5077058;28;20406;-89
2021/09/03 10:50:36;;;;;;;18.42;13.63;;;21.30;57.90;;;;;;5056327;28;20102;-87
2021/09/03 10:53:05;;;;;;;20.10;15.23;;;21.40;58.00;;;;;;5072367;28;20259;-85
2021/09/03 10:56:05;;;;;;;20.58;14.88;;;21.40;57.70;;;;;;5069439;28;20463;-89
2021/09/03 10:58:49;;;;;;;19.98;13.40;;;21.40;57.30;;;;;;5083156;28;20272;-91
2021/09/03 11:01:18;;;;;;;19.83;14.43;;;21.40;57.20;;;;;;5071059;28;20044;-88
2021/09/03 11:03:45;;;;;;;19.95;13.85;;;21.40;57.10;;;;;;5066927;28;20024;-85
2021/09/03 11:06:23;;;;;;;23.85;14.18;;;21.40;57.10;;;;;;5049754;28;20029;-86
2021/09/03 11:08:50;;;;;;;23.58;13.52;;;21.30;56.60;;;;;;5078902;28;20351;-86
2021/09/03 11:11:35;;;;;;;20.17;14.65;;;21.30;56.70;;;;;;5067975;28;20032;-87
2021/09/03 11:14:07;;;;;;;19.55;14.20;;;21.20;56.40;;;;;;5051929;28;20086;-85
2021/09/03 11:16:51;;;;;;;21.83;15.23;;;21.20;56.30;;;;;;5064541;28;20078;-85
2021/09/03 11:19:34;;;;;;;21.35;13.98;;;21.20;56.20;;;;;;5061641;28;20119;-86
2021/09/03 11:22:00;;;;;;;28.27;16.00;;;21.30;56.40;;;;;;5066017;28;20145;-84
2021/09/03 11:24:30;;;;;;;20.92;15.15;;;21.30;56.40;;;;;;5072568;28;20032;-85
2021/09/03 11:26:57;;;;;;;23.58;15.95;;;21.40;56.30;;;;;;5060428;28;20033;-86
2021/09/03 11:29:32;;;;;;;23.42;17.80;;;21.40;56.10;;;;;;5064715;28;20033;-86
2021/09/03 11:32:09;;;;;;;24.63;16.35;;;21.50;55.90;;;;;;5064401;28;20025;-87
2021/09/03 11:34:52;;;;;;;21.88;17.05;;;21.60;55.70;;;;;;5044762;28;20029;-87
2021/09/03 11:37:18;;;;;;;22.63;17.30;;;21.60;55.50;;;;;;5045145;28;20040;-87
2021/09/03 11:39:44;;;;;;;22.02;15.98;;;21.70;55.60;;;;;;5047799;28;20115;-85
2021/09/03 11:42:26;;;;;;;25.00;18.83;;;21.70;55.40;;;;;;5046694;28;20389;-91
2021/09/03 11:44:55;;;;;;;21.48;16.33;;;21.80;55.30;;;;;;5047708;28;20040;-86
2021/09/03 11:47:37;;;;;;;19.90;15.15;;;21.90;55.40;;;;;;5069302;28;20046;-84
2021/09/03 11:50:11;;;;;;;22.00;15.68;;;21.90;55.30;;;;;;5080793;28;20033;-85
2021/09/03 11:52:40;;;;;;;21.80;16.67;;;22.00;55.40;;;;;;5047567;28;20094;-85
2021/09/03 11:55:08;;;;;;;20.23;16.30;;;22.00;55.10;;;;;;5063726;28;20459;-83
2021/09/03 11:57:58;;;;;;;28.80;17.38;;;22.10;55.10;;;;;;5064502;28;20036;-87
2021/09/03 12:00:32;;;;;;;27.83;16.25;;;22.10;55.00;;;;;;5064762;28;20580;-86
2021/09/03 12:03:04;;;;;;;25.23;15.95;;;22.20;55.20;;;;;;5066736;28;20036;-87
2021/09/03 12:05:30;;;;;;;21.95;14.57;;;22.20;55.30;;;;;;5064781;28;20037;-86
2021/09/03 12:08:26;;;;;;;23.20;17.00;;;22.20;55.10;;;;;;5053570;28;20028;-88
2021/09/03 12:10:55;;;;;;;26.10;15.90;;;22.20;54.70;;;;;;5085861;28;20047;-88
2021/09/03 12:13:24;;;;;;;20.48;15.65;;;22.30;55.00;;;;;;5075868;28;20456;-89
2021/09/03 12:16:07;;;;;;;21.33;16.92;;;22.40;55.00;;;;;;5049637;28;20037;-89
2021/09/03 12:18:39;;;;;;;21.33;17.03;;;22.50;54.90;;;;;;5071668;28;20391;-87
2021/09/03 12:21:12;;;;;;;25.05;16.95;;;22.60;54.90;;;;;;5049875;28;20101;-89
2021/09/03 12:23:44;;;;;;;23.33;16.20;;;22.60;54.70;;;;;;5055789;28;20036;-89
2021/09/03 12:26:15;;;;;;;23.35;16.48;;;22.80;54.90;;;;;;5049369;28;20032;-86
2021/09/03 12:28:52;;;;;;;19.52;14.20;;;22.80;54.70;;;;;;5056939;28;20052;-90
2021/09/03 12:31:28;;;;;;;25.10;14.82;;;22.90;54.50;;;;;;5053169;28;20236;-90
2021/09/03 12:34:08;;;;;;;21.73;13.95;;;22.90;54.20;;;;;;5085486;28;20536;-94
2021/09/03 12:36:38;;;;;;;20.38;14.40;;;23.00;54.10;;;;;;5089751;28;20059;-82
2021/09/03 12:39:11;;;;;;;26.17;14.98;;;23.00;54.10;;;;;;5077153;28;20063;-94
2021/09/03 12:41:41;;;;;;;24.63;15.00;;;23.00;54.00;;;;;;5053109;28;20028;-93